createdAt,value
2018-06-01T00:00:35.651Z,11.80
2018-06-01T00:03:03.252Z,11.80
2018-06-01T00:05:30.858Z,11.80
2018-06-01T00:07:58.467Z,11.80
2018-06-01T00:10:26.074Z,11.80
2018-06-01T00:12:53.682Z,11.80
2018-06-01T00:15:21.294Z,11.80
2018-06-01T00:17:48.915Z,11.80
2018-06-01T00:20:16.529Z,11.80
2018-06-01T00:22:44.127Z,11.80
2018-06-01T00:25:11.753Z,11.80
2018-06-01T00:27:40.127Z,11.90
2018-06-01T00:30:07.726Z,11.90
2018-06-01T00:32:35.340Z,11.90
2018-06-01T00:35:02.947Z,11.90
2018-06-01T00:37:30.675Z,11.90
2018-06-01T00:39:59.050Z,11.90
2018-06-01T00:42:27.423Z,11.80
2018-06-01T00:44:55.038Z,11.70
2018-06-01T00:47:22.634Z,11.80
2018-06-01T00:49:50.238Z,11.80
2018-06-01T00:52:17.846Z,11.80
2018-06-01T00:57:51.774Z,11.70
2018-06-01T01:00:19.405Z,11.70
2018-06-01T01:02:47.008Z,11.70
2018-06-01T01:05:15.400Z,11.60
2018-06-01T01:07:43.814Z,11.60
2018-06-01T01:10:11.414Z,11.50
2018-06-01T01:12:39.026Z,11.60
2018-06-01T01:15:06.636Z,11.60
2018-06-01T01:17:34.260Z,11.60
2018-06-01T01:20:01.867Z,11.60
2018-06-01T01:22:30.234Z,11.70
2018-06-01T01:24:57.843Z,11.60
2018-06-01T01:27:25.470Z,11.60
2018-06-01T01:29:53.854Z,11.70
2018-06-01T01:32:22.231Z,11.70
2018-06-01T01:34:50.611Z,11.70
2018-06-01T01:37:30.948Z,11.70
2018-06-01T01:39:59.406Z,11.60
2018-06-01T01:42:27.018Z,11.70
2018-06-01T01:44:54.630Z,11.70
2018-06-01T01:47:22.238Z,11.70
2018-06-01T01:49:53.790Z,11.70
2018-06-01T01:52:21.408Z,11.70
2018-06-01T01:54:49.022Z,11.70
2018-06-01T01:57:16.649Z,11.70
2018-06-01T01:59:45.026Z,11.80
2018-06-01T02:02:13.399Z,11.80
2018-06-01T02:04:41.806Z,11.80
2018-06-01T02:07:09.406Z,11.70
2018-06-01T02:09:37.814Z,11.80
2018-06-01T02:12:06.183Z,11.80
2018-06-01T02:14:33.805Z,11.70
2018-06-01T02:17:01.426Z,11.80
2018-06-01T02:19:29.035Z,11.90
2018-06-01T02:21:56.646Z,11.90
2018-06-01T02:24:25.033Z,11.90
2018-06-01T02:26:52.646Z,11.80
2018-06-01T02:29:20.247Z,11.90
2018-06-01T02:31:48.634Z,12.00
2018-06-01T02:34:16.243Z,11.90
2018-06-01T02:36:43.852Z,12.10
2018-06-01T02:39:11.567Z,12.10
2018-06-01T02:41:39.187Z,12.20
2018-06-01T02:44:06.803Z,12.30
2018-06-01T02:46:34.421Z,12.30
2018-06-01T02:49:02.031Z,12.40
2018-06-01T02:51:30.406Z,12.60
2018-06-01T02:53:58.792Z,12.60
2018-06-01T02:56:27.177Z,12.70
2018-06-01T02:58:55.543Z,12.80
2018-06-01T03:01:23.919Z,12.80
2018-06-01T03:03:52.294Z,12.90
2018-06-01T03:06:20.698Z,12.90
2018-06-01T03:08:48.332Z,12.90
2018-06-01T03:11:16.699Z,13.10
2018-06-01T03:13:44.311Z,13.00
2018-06-01T03:16:11.918Z,13.10
2018-06-01T03:18:39.522Z,13.20
2018-06-01T03:21:07.122Z,13.40
2018-06-01T03:23:34.743Z,13.50
2018-06-01T03:26:02.352Z,13.60
2018-06-01T03:28:29.959Z,13.70
2018-06-01T03:30:57.566Z,13.80
2018-06-01T03:33:25.174Z,13.90
2018-06-01T03:35:52.790Z,14.00
2018-06-01T03:38:20.398Z,14.10
2018-06-01T03:40:47.999Z,14.20
2018-06-01T03:43:15.610Z,14.30
2018-06-01T03:45:43.214Z,14.40
2018-06-01T03:48:10.835Z,14.50
2018-06-01T03:50:38.487Z,14.50
2018-06-01T03:53:06.109Z,14.60
2018-06-01T03:55:33.723Z,14.60
2018-06-01T03:58:01.320Z,14.70
2018-06-01T04:00:28.971Z,14.90
2018-06-01T04:02:56.627Z,14.90
2018-06-01T04:05:24.215Z,15.00
2018-06-01T04:07:51.878Z,15.10
2018-06-01T04:10:19.509Z,15.10
2018-06-01T04:12:47.143Z,15.10
2018-06-01T04:15:14.758Z,15.20
2018-06-01T04:17:42.372Z,15.20
2018-06-01T04:20:10.010Z,15.20
2018-06-01T04:22:37.650Z,15.30
2018-06-01T04:25:06.031Z,15.40
2018-06-01T04:27:34.435Z,15.30
2018-06-01T04:30:02.065Z,15.30
2018-06-01T04:32:30.435Z,15.40
2018-06-01T04:34:58.055Z,15.40
2018-06-01T04:37:25.730Z,15.40
2018-06-01T04:39:53.360Z,15.40
2018-06-01T04:42:20.966Z,15.40
2018-06-01T04:44:48.575Z,15.40
2018-06-01T04:47:16.182Z,15.50
2018-06-01T04:49:43.782Z,15.50
2018-06-01T04:52:11.434Z,15.60
2018-06-01T04:54:39.798Z,15.90
2018-06-01T04:57:08.168Z,15.90
2018-06-01T04:59:35.784Z,15.80
2018-06-01T05:02:03.388Z,16.00
2018-06-01T05:04:30.995Z,16.00
2018-06-01T05:06:58.615Z,16.10
2018-06-01T05:09:27.003Z,16.40
2018-06-01T05:11:55.392Z,16.50
2018-06-01T05:14:23.036Z,16.40
2018-06-01T05:16:51.410Z,16.70
2018-06-01T05:19:19.794Z,16.80
2018-06-01T05:21:48.187Z,16.90
2018-06-01T05:24:15.817Z,16.80
2018-06-01T05:26:43.435Z,17.00
2018-06-01T05:29:11.058Z,17.10
2018-06-01T05:31:40.814Z,17.30
2018-06-01T05:34:08.442Z,17.20
2018-06-01T05:36:36.062Z,17.40
2018-06-01T05:39:03.725Z,17.50
2018-06-01T05:41:31.355Z,17.60
2018-06-01T05:43:58.970Z,17.80
2018-06-01T05:46:27.394Z,18.00
2018-06-01T05:48:55.010Z,17.90
2018-06-01T05:51:22.667Z,18.10
2018-06-01T05:53:50.280Z,18.20
2018-06-01T05:56:17.898Z,18.40
2018-06-01T05:58:45.508Z,18.50
2018-06-01T06:01:13.136Z,18.70
2018-06-01T06:03:40.743Z,18.90
2018-06-01T06:06:08.382Z,19.00
2018-06-01T06:08:35.998Z,19.20
2018-06-01T06:11:03.600Z,19.40
2018-06-01T06:13:31.273Z,19.50
2018-06-01T06:15:59.702Z,19.80
2018-06-01T06:18:28.106Z,18.20
2018-06-01T06:20:55.742Z,19.90
2018-06-01T06:23:23.392Z,20.10
2018-06-01T06:25:50.998Z,20.30
2018-06-01T06:28:18.606Z,20.40
2018-06-01T06:30:46.256Z,20.50
2018-06-01T06:33:13.871Z,20.80
2018-06-01T06:35:41.478Z,20.80
2018-06-01T06:38:09.855Z,21.10
2018-06-01T06:40:38.218Z,21.20
2018-06-01T06:43:06.605Z,21.10
2018-06-01T06:45:34.993Z,21.10
2018-06-01T06:48:03.362Z,21.10
2018-06-01T06:50:31.733Z,21.30
2018-06-01T06:53:00.120Z,21.70
2018-06-01T06:55:28.490Z,21.40
2018-06-01T06:57:56.890Z,20.90
2018-06-01T07:00:24.507Z,20.90
2018-06-01T07:02:52.111Z,21.00
2018-06-01T07:05:19.719Z,21.20
2018-06-01T07:07:47.326Z,21.50
2018-06-01T07:10:14.923Z,21.60
2018-06-01T07:12:42.551Z,21.70
2018-06-01T07:15:10.170Z,21.50
2018-06-01T07:17:37.780Z,21.70
2018-06-01T07:20:05.383Z,22.10
2018-06-01T07:22:33.023Z,22.60
2018-06-01T07:25:00.633Z,22.70
2018-06-01T07:27:29.055Z,22.10
2018-06-01T07:29:56.687Z,22.00
2018-06-01T07:32:24.283Z,22.30
2018-06-01T07:34:51.897Z,22.60
2018-06-01T07:37:19.527Z,22.70
2018-06-01T07:39:47.925Z,23.00
2018-06-01T07:42:15.547Z,22.90
2018-06-01T07:44:43.177Z,22.90
2018-06-01T07:47:10.786Z,23.30
2018-06-01T07:49:38.407Z,23.50
2018-06-01T07:52:06.026Z,23.70
2018-06-01T07:54:34.398Z,23.80
2018-06-01T07:57:02.790Z,23.90
2018-06-01T07:59:31.188Z,24.00
2018-06-01T08:01:58.802Z,23.90
2018-06-01T08:04:26.426Z,24.20
2018-06-01T08:06:54.830Z,24.10
2018-06-01T08:09:22.451Z,24.10
2018-06-01T08:11:50.059Z,24.10
2018-06-01T08:14:17.681Z,24.30
2018-06-01T08:16:45.275Z,24.20
2018-06-01T08:19:15.235Z,24.20
2018-06-01T08:21:42.846Z,24.50
2018-06-01T08:24:10.461Z,24.80
2018-06-01T08:26:38.083Z,25.00
2018-06-01T08:29:06.455Z,25.50
2018-06-01T08:31:35.402Z,26.10
2018-06-01T08:34:03.016Z,26.00
2018-06-01T08:36:31.411Z,27.00
2018-06-01T08:38:59.023Z,26.90
2018-06-01T08:41:26.631Z,27.00
2018-06-01T08:43:54.256Z,27.40
2018-06-01T08:46:21.891Z,26.90
2018-06-01T08:48:49.536Z,26.20
2018-06-01T08:51:17.167Z,26.60
2018-06-01T08:53:44.787Z,26.50
2018-06-01T08:56:12.394Z,26.40
2018-06-01T08:58:40.031Z,26.70
2018-06-01T09:01:08.433Z,27.50
2018-06-01T09:03:36.047Z,27.50
2018-06-01T09:06:03.670Z,27.50
2018-06-01T09:08:31.286Z,27.70
2018-06-01T09:10:59.662Z,27.70
2018-06-01T09:13:28.042Z,27.50
2018-06-01T09:15:56.451Z,27.00
2018-06-01T09:18:24.068Z,26.90
2018-06-01T09:20:51.695Z,27.10
2018-06-01T09:23:19.344Z,26.80
2018-06-01T09:25:46.943Z,26.60
2018-06-01T09:28:14.633Z,26.30
2018-06-01T09:30:43.028Z,25.90
2018-06-01T09:33:10.663Z,25.80
2018-06-01T09:35:39.038Z,25.80
2018-06-01T09:38:06.712Z,25.80
2018-06-01T09:40:34.369Z,25.50
2018-06-01T09:43:02.772Z,25.50
2018-06-01T09:45:30.386Z,25.40
2018-06-01T09:47:58.001Z,25.80
2018-06-01T09:50:25.610Z,26.00
2018-06-01T09:52:54.009Z,25.90
2018-06-01T09:55:21.672Z,25.90
2018-06-01T09:57:50.044Z,25.70
2018-06-01T10:00:18.462Z,25.60
2018-06-01T10:02:46.084Z,25.50
2018-06-01T10:05:13.726Z,25.60
2018-06-01T10:07:42.389Z,25.50
2018-06-01T10:10:15.652Z,25.50
2018-06-01T10:12:43.255Z,25.50
2018-06-01T10:15:10.871Z,25.60
2018-06-01T10:17:38.513Z,25.40
2018-06-01T10:20:06.203Z,25.60
2018-06-01T10:22:33.833Z,25.50
2018-06-01T10:25:01.455Z,25.50
2018-06-01T10:27:29.081Z,25.50
2018-06-01T10:29:56.732Z,25.50
2018-06-01T10:32:24.345Z,25.60
2018-06-01T10:34:53.973Z,25.70
2018-06-01T10:37:21.590Z,25.70
2018-06-01T10:39:51.102Z,25.70
2018-06-01T10:42:18.717Z,25.70
2018-06-01T10:44:46.328Z,25.80
2018-06-01T10:47:14.727Z,25.80
2018-06-01T10:49:43.118Z,26.00
2018-06-01T10:52:10.760Z,25.90
2018-06-01T10:54:39.142Z,25.70
2018-06-01T10:57:07.575Z,25.80
2018-06-01T10:59:35.191Z,25.80
2018-06-01T11:02:02.792Z,25.80
2018-06-01T11:04:30.446Z,26.00
2018-06-01T11:06:58.055Z,26.10
2018-06-01T11:09:26.420Z,26.00
2018-06-01T11:11:54.067Z,25.90
2018-06-01T11:14:21.711Z,26.30
2018-06-01T11:16:49.310Z,26.30
2018-06-01T11:19:17.704Z,26.40
2018-06-01T11:21:45.307Z,26.30
2018-06-01T11:24:12.926Z,26.40
2018-06-01T11:26:40.555Z,26.70
2018-06-01T11:29:08.187Z,26.70
2018-06-01T11:31:35.805Z,26.90
2018-06-01T11:34:03.431Z,27.00
2018-06-01T11:36:31.058Z,27.00
2018-06-01T11:38:58.671Z,27.00
2018-06-01T11:41:27.054Z,27.40
2018-06-01T11:43:55.423Z,27.30
2018-06-01T11:46:23.796Z,27.30
2018-06-01T11:48:52.176Z,27.30
2018-06-01T11:51:20.594Z,27.50
2018-06-01T11:53:48.615Z,27.50
2018-06-01T11:56:16.226Z,27.50
2018-06-01T11:58:43.829Z,27.30
2018-06-01T12:01:11.495Z,27.40
2018-06-01T12:03:39.103Z,27.20
2018-06-01T12:06:06.708Z,26.90
2018-06-01T12:08:34.310Z,27.10
2018-06-01T12:11:02.387Z,27.00
2018-06-01T12:13:29.998Z,26.40
2018-06-01T12:15:57.598Z,26.70
2018-06-01T12:18:25.338Z,26.80
2018-06-01T12:20:53.706Z,27.30
2018-06-01T12:23:22.079Z,27.30
2018-06-01T12:25:49.699Z,27.30
2018-06-01T12:28:17.304Z,27.10
2018-06-01T12:30:45.688Z,27.30
2018-06-01T12:33:14.066Z,27.70
2018-06-01T12:35:42.499Z,28.10
2018-06-01T12:38:10.103Z,28.00
2018-06-01T12:40:38.478Z,28.50
2018-06-01T12:43:06.868Z,28.90
2018-06-01T12:45:35.240Z,29.20
2018-06-01T12:48:03.642Z,29.20
2018-06-01T12:50:31.238Z,29.20
2018-06-01T12:52:58.850Z,29.30
2018-06-01T12:55:26.463Z,29.40
2018-06-01T12:57:54.071Z,28.90
2018-06-01T13:00:21.686Z,29.20
2018-06-01T13:02:49.290Z,29.40
2018-06-01T13:05:16.902Z,28.40
2018-06-01T13:07:44.543Z,28.50
2018-06-01T13:10:12.207Z,27.90
2018-06-01T13:12:39.803Z,27.50
2018-06-01T13:15:07.417Z,27.40
2018-06-01T13:17:35.026Z,27.90
2018-06-01T13:20:03.420Z,29.30
2018-06-01T13:22:31.818Z,30.10
2018-06-01T13:24:59.428Z,30.00
2018-06-01T13:27:27.045Z,30.50
2018-06-01T13:29:54.679Z,31.60
2018-06-01T13:32:23.082Z,30.60
2018-06-01T13:34:50.690Z,30.50
2018-06-01T13:37:18.300Z,30.70
2018-06-01T13:39:45.939Z,31.40
2018-06-01T13:42:13.551Z,32.30
2018-06-01T13:44:41.154Z,32.30
2018-06-01T13:47:09.548Z,33.30
2018-06-01T13:49:37.150Z,33.20
2018-06-01T13:52:04.779Z,33.50
2018-06-01T13:54:32.390Z,33.70
2018-06-01T13:56:59.990Z,34.50
2018-06-01T13:59:27.604Z,33.10
2018-06-01T14:01:55.221Z,32.50
2018-06-01T14:04:22.843Z,33.40
2018-06-01T14:06:51.206Z,33.20
2018-06-01T14:09:18.834Z,33.10
2018-06-01T14:11:46.475Z,32.50
2018-06-01T14:14:14.085Z,32.90
2018-06-01T14:16:41.700Z,33.70
2018-06-01T14:19:09.308Z,33.60
2018-06-01T14:21:37.691Z,34.60
2018-06-01T14:24:06.071Z,35.60
2018-06-01T14:26:34.530Z,36.10
2018-06-01T14:29:02.082Z,36.00
2018-06-01T14:31:29.716Z,35.80
2018-06-01T14:33:57.332Z,35.40
2018-06-01T14:36:25.716Z,36.10
2018-06-01T14:38:53.344Z,36.10
2018-06-01T14:41:20.946Z,34.70
2018-06-01T14:43:48.562Z,35.10
2018-06-01T14:46:16.174Z,35.90
2018-06-01T14:48:43.774Z,36.20
2018-06-01T14:51:11.390Z,36.00
2018-06-01T14:53:39.003Z,36.70
2018-06-01T14:56:06.631Z,36.30
2018-06-01T14:58:34.242Z,36.40
2018-06-01T15:01:02.643Z,33.80
2018-06-01T15:03:30.254Z,33.70
2018-06-01T15:05:57.866Z,33.90
2018-06-01T15:08:25.521Z,34.90
2018-06-01T15:10:53.870Z,35.30
2018-06-01T15:13:21.515Z,35.20
2018-06-01T15:15:49.127Z,36.00
2018-06-01T15:18:16.735Z,36.90
2018-06-01T15:20:44.347Z,35.50
2018-06-01T15:23:11.959Z,35.30
2018-06-01T15:25:39.634Z,35.00
2018-06-01T15:28:07.220Z,34.80
2018-06-01T15:30:34.850Z,34.80
2018-06-01T15:33:03.223Z,34.80
2018-06-01T15:35:30.842Z,34.70
2018-06-01T15:37:58.467Z,34.40
2018-06-01T15:40:26.072Z,34.70
2018-06-01T15:42:54.474Z,33.70
2018-06-01T15:45:22.163Z,33.70
2018-06-01T15:47:50.542Z,35.30
2018-06-01T15:50:18.911Z,32.10
2018-06-01T15:52:47.282Z,30.20
2018-06-01T15:55:15.666Z,30.40
2018-06-01T15:57:44.040Z,31.20
2018-06-01T16:00:12.434Z,30.60
2018-06-01T16:02:40.038Z,30.50
2018-06-01T16:05:07.659Z,30.40
2018-06-01T16:07:35.271Z,29.90
2018-06-01T16:10:02.919Z,30.70
2018-06-01T16:12:30.593Z,31.40
2018-06-01T16:14:58.182Z,31.40
2018-06-01T16:17:26.547Z,32.20
2018-06-01T16:19:54.171Z,32.10
2018-06-01T16:22:21.794Z,32.50
2018-06-01T16:24:49.414Z,32.50
2018-06-01T16:27:17.026Z,32.10
2018-06-01T16:29:44.635Z,31.50
2018-06-01T16:32:12.247Z,31.70
2018-06-01T16:34:39.854Z,30.20
2018-06-01T16:37:07.491Z,29.80
2018-06-01T16:39:35.095Z,28.10
2018-06-01T16:42:03.478Z,29.20
2018-06-01T16:44:31.850Z,27.90
2018-06-01T16:47:00.235Z,27.40
2018-06-01T16:49:28.607Z,27.30
2018-06-01T16:51:57.038Z,28.20
2018-06-01T16:54:24.685Z,28.10
2018-06-01T16:56:52.299Z,29.10
2018-06-01T16:59:20.676Z,28.60
2018-06-01T17:01:49.063Z,28.20
2018-06-01T17:04:17.437Z,27.10
2018-06-01T17:06:45.826Z,26.00
2018-06-01T17:09:13.447Z,25.90
2018-06-01T17:11:41.109Z,25.40
2018-06-01T17:14:08.723Z,24.70
2018-06-01T17:16:36.334Z,24.60
2018-06-01T17:19:03.947Z,24.60
2018-06-01T17:21:31.562Z,25.10
2018-06-01T17:23:59.171Z,24.30
2018-06-01T17:26:26.790Z,23.70
2018-06-01T17:28:55.166Z,23.60
2018-06-01T17:31:23.559Z,23.80
2018-06-01T17:33:51.922Z,23.60
2018-06-01T17:36:20.304Z,23.40
2018-06-01T17:38:48.679Z,23.20
2018-06-01T17:41:17.060Z,22.70
2018-06-01T17:43:45.434Z,22.40
2018-06-01T17:46:13.813Z,22.10
2018-06-01T17:48:42.191Z,22.00
2018-06-01T17:51:10.567Z,21.90
2018-06-01T17:53:38.943Z,21.80
2018-06-01T17:56:07.323Z,21.90
2018-06-01T17:58:35.704Z,21.80
2018-06-01T18:01:04.067Z,22.10
2018-06-01T18:03:31.682Z,22.00
2018-06-01T18:05:59.294Z,21.80
2018-06-01T18:08:27.730Z,21.30
2018-06-01T18:10:55.339Z,21.20
2018-06-01T18:13:23.726Z,21.10
2018-06-01T18:15:52.102Z,21.00
2018-06-01T18:18:20.466Z,20.80
2018-06-01T18:20:48.871Z,20.70
2018-06-01T18:23:16.483Z,20.60
2018-06-01T18:25:44.092Z,20.60
2018-06-01T18:28:11.704Z,20.60
2018-06-01T18:30:39.316Z,20.60
2018-06-01T18:33:06.931Z,20.60
2018-06-01T18:35:34.543Z,20.50
2018-06-01T18:38:02.160Z,20.40
2018-06-01T18:40:30.547Z,20.30
2018-06-01T18:42:58.922Z,20.20
2018-06-01T18:45:26.580Z,20.10
2018-06-01T18:47:54.954Z,20.00
2018-06-01T18:50:23.339Z,20.00
2018-06-01T18:52:51.722Z,19.90
2018-06-01T18:55:20.088Z,19.90
2018-06-01T18:57:48.473Z,19.80
2018-06-01T19:00:16.841Z,19.80
2018-06-01T19:02:45.226Z,19.70
2018-06-01T19:05:13.603Z,19.70
2018-06-01T19:07:41.972Z,19.70
2018-06-01T19:10:10.355Z,19.70
2018-06-01T19:12:38.731Z,19.70
2018-06-01T19:15:06.346Z,19.60
2018-06-01T19:17:34.021Z,19.70
2018-06-01T19:20:01.603Z,19.70
2018-06-01T19:22:29.221Z,19.60
2018-06-01T19:24:56.818Z,19.40
2018-06-01T19:27:24.438Z,19.30
2018-06-01T19:29:52.061Z,19.20
2018-06-01T19:32:20.434Z,19.10
2018-06-01T19:34:48.807Z,18.90
2018-06-01T19:37:17.182Z,18.80
2018-06-01T19:39:45.588Z,18.70
2018-06-01T19:42:13.199Z,18.60
2018-06-01T19:44:40.811Z,18.70
2018-06-01T19:47:08.410Z,18.60
2018-06-01T19:49:36.032Z,18.60
2018-06-01T19:52:03.639Z,18.50
2018-06-01T19:54:31.242Z,18.40
2018-06-01T19:56:58.853Z,18.30
2018-06-01T19:59:26.521Z,18.20
2018-06-01T20:01:54.145Z,18.10
2018-06-01T20:04:21.755Z,18.10
2018-06-01T20:06:50.127Z,17.80
2018-06-01T20:09:17.743Z,17.80
2018-06-01T20:11:45.350Z,17.70
2018-06-01T20:14:13.773Z,17.50
2018-06-01T20:16:41.406Z,17.50
2018-06-01T20:19:09.823Z,17.50
2018-06-01T20:21:37.423Z,17.40
2018-06-01T20:24:05.035Z,17.50
2018-06-01T20:26:32.658Z,17.40
2018-06-01T20:29:01.029Z,17.20
2018-06-01T20:31:29.406Z,17.10
2018-06-01T20:33:57.814Z,17.00
2018-06-01T20:36:25.971Z,16.90
2018-06-01T20:38:53.913Z,17.00
2018-06-01T20:41:21.531Z,16.90
2018-06-01T20:43:51.971Z,17.00
2018-06-01T20:46:20.391Z,16.90
2018-06-01T20:48:49.220Z,16.80
2018-06-01T20:51:21.415Z,16.70
2018-06-01T20:53:51.143Z,16.60
2018-06-01T20:56:20.667Z,16.50
2018-06-01T20:58:48.283Z,16.30
2018-06-01T21:01:15.895Z,16.40
2018-06-01T21:03:50.415Z,16.20
2018-06-01T21:06:25.289Z,16.00
2018-06-01T21:08:56.846Z,15.90
2018-06-01T21:11:32.186Z,15.90
2018-06-01T21:14:06.740Z,15.90
2018-06-01T21:16:35.187Z,15.80
2018-06-01T21:19:02.795Z,15.70
2018-06-01T21:21:31.185Z,15.50
2018-06-01T21:23:58.799Z,15.50
2018-06-01T21:26:26.423Z,15.50
2018-06-01T21:28:54.034Z,15.50
2018-06-01T21:31:21.650Z,15.50
2018-06-01T21:33:49.285Z,15.50
2018-06-01T21:36:16.899Z,15.30
2018-06-01T21:38:44.515Z,15.30
2018-06-01T21:41:12.159Z,15.20
2018-06-01T21:43:39.758Z,15.10
2018-06-01T21:46:07.419Z,15.10
2018-06-01T21:48:35.061Z,15.10
2018-06-01T21:51:02.665Z,15.10
2018-06-01T21:53:30.285Z,15.10
2018-06-01T21:55:57.884Z,15.00
2018-06-01T21:58:25.495Z,15.00
2018-06-01T22:00:53.118Z,14.90
2018-06-01T22:03:21.491Z,14.90
2018-06-01T22:05:49.110Z,14.80
2018-06-01T22:08:16.719Z,14.90
2018-06-01T22:10:45.100Z,14.80
2018-06-01T22:13:13.470Z,14.70
2018-06-01T22:15:41.847Z,14.70
2018-06-01T22:18:10.264Z,14.70
2018-06-01T22:20:37.866Z,14.60
2018-06-01T22:23:05.500Z,14.70
2018-06-01T22:25:33.104Z,14.60
2018-06-01T22:28:01.479Z,14.50
2018-06-01T22:30:29.862Z,14.50
2018-06-01T22:32:58.231Z,14.50
2018-06-01T22:35:26.625Z,14.40
2018-06-01T22:37:55.003Z,14.40
2018-06-01T22:40:23.386Z,14.30
2018-06-01T22:42:50.990Z,14.30
2018-06-01T22:45:18.621Z,14.30
2018-06-01T22:47:46.232Z,14.30
2018-06-01T22:50:13.834Z,14.30
2018-06-01T22:52:41.443Z,14.40
2018-06-01T22:55:09.094Z,14.40
2018-06-01T22:57:36.723Z,14.50
2018-06-01T23:00:04.354Z,14.60
2018-06-01T23:02:32.730Z,14.60
2018-06-01T23:05:01.106Z,14.60
2018-06-01T23:07:29.482Z,14.60
2018-06-01T23:09:57.866Z,14.60
2018-06-01T23:12:25.490Z,14.50
2018-06-01T23:14:53.112Z,14.50
2018-06-01T23:17:20.714Z,14.50
2018-06-01T23:19:48.375Z,14.40
2018-06-01T23:22:15.974Z,14.30
2018-06-01T23:24:45.083Z,14.10
2018-06-01T23:27:13.464Z,14.10
2018-06-01T23:29:41.123Z,14.00
2018-06-01T23:32:08.730Z,14.00
2018-06-01T23:34:36.337Z,13.70
2018-06-01T23:37:03.971Z,13.50
2018-06-01T23:39:32.358Z,13.20
2018-06-01T23:42:00.737Z,13.10
2018-06-01T23:44:29.116Z,13.10
2018-06-01T23:46:57.485Z,13.00
2018-06-01T23:49:25.866Z,13.00
2018-06-01T23:51:54.238Z,13.00
2018-06-01T23:54:22.618Z,13.00
2018-06-01T23:56:50.990Z,13.00
2018-06-01T23:59:19.370Z,13.00
